sensor_id;sensor_type;location;lat;lon;timestamp;pressure;altitude;pressure_sealevel;temperature;humidity
79465;BME280;68932;47.410;8.232;2024-01-11T00:00:06;97544.37;;;0.12;80.01
79465;BME280;68932;47.410;8.232;2024-01-11T00:02:34;97542.95;;;0.14;79.92
79465;BME280;68932;47.410;8.232;2024-01-11T00:05:03;97542.76;;;0.15;79.79
79465;BME280;68932;47.410;8.232;2024-01-11T00:07:31;97542.23;;;0.16;79.82
79465;BME280;68932;47.410;8.232;2024-01-11T00:10:00;97543.58;;;0.18;79.73
79465;BME280;68932;47.410;8.232;2024-01-11T00:12:28;97544.42;;;0.19;79.65
79465;BME280;68932;47.410;8.232;2024-01-11T00:14:56;97544.23;;;0.20;79.58
79465;BME280;68932;47.410;8.232;2024-01-11T00:17:24;97547.33;;;0.21;79.61
79465;BME280;68932;47.410;8.232;2024-01-11T00:19:53;97545.95;;;0.21;79.56
79465;BME280;68932;47.410;8.232;2024-01-11T00:22:21;97546.30;;;0.20;79.48
79465;BME280;68932;47.410;8.232;2024-01-11T00:24:49;97545.25;;;0.21;79.63
79465;BME280;68932;47.410;8.232;2024-01-11T00:27:18;97546.26;;;0.23;79.64
79465;BME280;68932;47.410;8.232;2024-01-11T00:29:46;97543.66;;;0.23;79.43
79465;BME280;68932;47.410;8.232;2024-01-11T00:32:14;97542.45;;;0.24;79.53
79465;BME280;68932;47.410;8.232;2024-01-11T00:34:42;97545.71;;;0.25;79.51
79465;BME280;68932;47.410;8.232;2024-01-11T00:37:11;97543.80;;;0.25;79.45
79465;BME280;68932;47.410;8.232;2024-01-11T00:39:39;97541.89;;;0.27;79.44
79465;BME280;68932;47.410;8.232;2024-01-11T00:42:08;97545.33;;;0.26;79.23
79465;BME280;68932;47.410;8.232;2024-01-11T00:44:36;97543.61;;;0.27;79.25
79465;BME280;68932;47.410;8.232;2024-01-11T00:47:05;97544.48;;;0.26;79.29
79465;BME280;68932;47.410;8.232;2024-01-11T00:49:33;97544.30;;;0.26;79.22
79465;BME280;68932;47.410;8.232;2024-01-11T00:52:01;97547.59;;;0.27;79.26
79465;BME280;68932;47.410;8.232;2024-01-11T00:54:30;97550.34;;;0.26;79.25
79465;BME280;68932;47.410;8.232;2024-01-11T00:56:58;97549.15;;;0.26;79.11
79465;BME280;68932;47.410;8.232;2024-01-11T00:59:26;97551.90;;;0.26;79.26
79465;BME280;68932;47.410;8.232;2024-01-11T01:01:54;97553.60;;;0.27;79.24
79465;BME280;68932;47.410;8.232;2024-01-11T01:04:23;97556.16;;;0.29;79.33
79465;BME280;68932;47.410;8.232;2024-01-11T01:06:51;97556.13;;;0.32;79.39
79465;BME280;68932;47.410;8.232;2024-01-11T01:09:19;97560.73;;;0.34;79.18
79465;BME280;68932;47.410;8.232;2024-01-11T01:11:48;97560.73;;;0.34;79.08
79465;BME280;68932;47.410;8.232;2024-01-11T01:14:16;97558.67;;;0.34;78.95
79465;BME280;68932;47.410;8.232;2024-01-11T01:16:44;97556.98;;;0.33;78.84
79465;BME280;68932;47.410;8.232;2024-01-11T01:19:13;97561.81;;;0.32;78.94
79465;BME280;68932;47.410;8.232;2024-01-11T01:21:41;97561.33;;;0.30;78.83
79465;BME280;68932;47.410;8.232;2024-01-11T01:24:09;97567.89;;;0.29;78.76
79465;BME280;68932;47.410;8.232;2024-01-11T01:26:37;97571.00;;;0.29;78.87
79465;BME280;68932;47.410;8.232;2024-01-11T01:29:06;97571.68;;;0.29;78.85
79465;BME280;68932;47.410;8.232;2024-01-11T01:31:34;97577.90;;;0.29;78.73
79465;BME280;68932;47.410;8.232;2024-01-11T01:34:02;97579.98;;;0.28;78.77
79465;BME280;68932;47.410;8.232;2024-01-11T01:36:31;97576.72;;;0.26;78.80
79465;BME280;68932;47.410;8.232;2024-01-11T01:38:59;97577.77;;;0.26;78.80
79465;BME280;68932;47.410;8.232;2024-01-11T01:41:27;97580.38;;;0.24;78.74
79465;BME280;68932;47.410;8.232;2024-01-11T01:43:56;97581.95;;;0.22;78.74
79465;BME280;68932;47.410;8.232;2024-01-11T01:46:25;97581.64;;;0.21;78.73
79465;BME280;68932;47.410;8.232;2024-01-11T01:48:55;97588.52;;;0.20;78.81
79465;BME280;68932;47.410;8.232;2024-01-11T01:51:26;97585.42;;;0.21;78.81
79465;BME280;68932;47.410;8.232;2024-01-11T01:53:55;97587.67;;;0.21;78.67
79465;BME280;68932;47.410;8.232;2024-01-11T01:56:24;97590.43;;;0.20;78.70
79465;BME280;68932;47.410;8.232;2024-01-11T01:58:54;97597.85;;;0.20;78.78
79465;BME280;68932;47.410;8.232;2024-01-11T02:01:24;97598.02;;;0.20;78.69
79465;BME280;68932;47.410;8.232;2024-01-11T02:03:55;97597.50;;;0.20;78.66
79465;BME280;68932;47.410;8.232;2024-01-11T02:06:26;97595.45;;;0.19;78.65
79465;BME280;68932;47.410;8.232;2024-01-11T02:08:56;97594.09;;;0.18;78.65
79465;BME280;68932;47.410;8.232;2024-01-11T02:11:25;97602.90;;;0.17;78.57
79465;BME280;68932;47.410;8.232;2024-01-11T02:13:55;97607.55;;;0.17;78.58
79465;BME280;68932;47.410;8.232;2024-01-11T02:16:23;97603.28;;;0.14;78.60
79465;BME280;68932;47.410;8.232;2024-01-11T02:18:51;97601.73;;;0.13;78.59
79465;BME280;68932;47.410;8.232;2024-01-11T02:21:20;97600.01;;;0.13;78.69
79465;BME280;68932;47.410;8.232;2024-01-11T02:24:01;97602.44;;;0.13;78.70
79465;BME280;68932;47.410;8.232;2024-01-11T02:26:30;97607.97;;;0.12;78.63
79465;BME280;68932;47.410;8.232;2024-01-11T02:28:58;97607.80;;;0.11;78.64
79465;BME280;68932;47.410;8.232;2024-01-11T02:31:27;97610.02;;;0.12;78.74
79465;BME280;68932;47.410;8.232;2024-01-11T02:33:55;97606.05;;;0.13;78.74
79465;BME280;68932;47.410;8.232;2024-01-11T02:36:24;97602.23;;;0.15;78.82
79465;BME280;68932;47.410;8.232;2024-01-11T02:38:54;97600.30;;;0.16;78.76
79465;BME280;68932;47.410;8.232;2024-01-11T02:41:24;97600.80;;;0.19;78.76
79465;BME280;68932;47.410;8.232;2024-01-11T02:43:55;97603.52;;;0.21;78.77
79465;BME280;68932;47.410;8.232;2024-01-11T02:46:23;97602.47;;;0.22;78.60
79465;BME280;68932;47.410;8.232;2024-01-11T02:48:52;97604.91;;;0.21;78.31
79465;BME280;68932;47.410;8.232;2024-01-11T02:51:20;97603.38;;;0.19;78.37
79465;BME280;68932;47.410;8.232;2024-01-11T02:53:48;97605.11;;;0.18;78.35
79465;BME280;68932;47.410;8.232;2024-01-11T02:56:17;97603.89;;;0.18;78.39
79465;BME280;68932;47.410;8.232;2024-01-11T02:58:45;97605.98;;;0.18;78.35
79465;BME280;68932;47.410;8.232;2024-01-11T03:01:13;97604.64;;;0.15;78.31
79465;BME280;68932;47.410;8.232;2024-01-11T03:03:41;97603.79;;;0.15;78.43
79465;BME280;68932;47.410;8.232;2024-01-11T03:06:10;97599.30;;;0.15;78.51
79465;BME280;68932;47.410;8.232;2024-01-11T03:08:38;97595.33;;;0.15;78.38
79465;BME280;68932;47.410;8.232;2024-01-11T03:11:07;97587.95;;;0.13;78.31
79465;BME280;68932;47.410;8.232;2024-01-11T03:13:35;97586.77;;;0.11;78.38
79465;BME280;68932;47.410;8.232;2024-01-11T03:16:04;97587.84;;;0.09;78.32
79465;BME280;68932;47.410;8.232;2024-01-11T03:18:33;97587.34;;;0.08;78.35
79465;BME280;68932;47.410;8.232;2024-01-11T03:21:01;97587.67;;;0.09;78.41
79465;BME280;68932;47.410;8.232;2024-01-11T03:23:29;97587.66;;;0.09;78.40
79465;BME280;68932;47.410;8.232;2024-01-11T03:25:58;97582.50;;;0.09;78.34
79465;BME280;68932;47.410;8.232;2024-01-11T03:28:26;97579.76;;;0.08;78.28
79465;BME280;68932;47.410;8.232;2024-01-11T03:30:54;97582.34;;;0.08;78.41
79465;BME280;68932;47.410;8.232;2024-01-11T03:33:23;97580.77;;;0.08;78.43
79465;BME280;68932;47.410;8.232;2024-01-11T03:35:51;97587.47;;;0.11;78.38
79465;BME280;68932;47.410;8.232;2024-01-11T03:38:19;97579.36;;;0.11;78.41
79465;BME280;68932;47.410;8.232;2024-01-11T03:40:48;97582.13;;;0.11;78.30
79465;BME280;68932;47.410;8.232;2024-01-11T03:43:18;97578.17;;;0.10;78.30
79465;BME280;68932;47.410;8.232;2024-01-11T03:45:46;97576.96;;;0.10;78.28
79465;BME280;68932;47.410;8.232;2024-01-11T03:48:14;97575.23;;;0.10;78.28
79465;BME280;68932;47.410;8.232;2024-01-11T03:50:43;97578.17;;;0.10;78.22
79465;BME280;68932;47.410;8.232;2024-01-11T03:53:11;97574.91;;;0.09;78.21
79465;BME280;68932;47.410;8.232;2024-01-11T03:55:40;97577.30;;;0.10;78.30
79465;BME280;68932;47.410;8.232;2024-01-11T03:58:08;97579.70;;;0.12;78.27
79465;BME280;68932;47.410;8.232;2024-01-11T04:00:36;97580.02;;;0.13;78.21
79465;BME280;68932;47.410;8.232;2024-01-11T04:03:05;97584.65;;;0.15;78.07
79465;BME280;68932;47.410;8.232;2024-01-11T04:05:34;97581.03;;;0.15;78.04
79465;BME280;68932;47.410;8.232;2024-01-11T04:08:05;97582.92;;;0.15;77.97
79465;BME280;68932;47.410;8.232;2024-01-11T04:10:34;97578.98;;;0.14;77.90
79465;BME280;68932;47.410;8.232;2024-01-11T04:13:02;97580.02;;;0.13;77.92
79465;BME280;68932;47.410;8.232;2024-01-11T04:15:31;97583.13;;;0.12;77.77
79465;BME280;68932;47.410;8.232;2024-01-11T04:17:59;97580.58;;;0.10;77.85
79465;BME280;68932;47.410;8.232;2024-01-11T04:20:27;97576.63;;;0.10;77.90
79465;BME280;68932;47.410;8.232;2024-01-11T04:22:56;97574.90;;;0.10;77.77
79465;BME280;68932;47.410;8.232;2024-01-11T04:25:24;97575.41;;;0.10;77.68
79465;BME280;68932;47.410;8.232;2024-01-11T04:27:52;97576.96;;;0.10;77.63
79465;BME280;68932;47.410;8.232;2024-01-11T04:30:21;97571.79;;;0.11;77.59
79465;BME280;68932;47.410;8.232;2024-01-11T04:32:49;97570.78;;;0.09;77.48
79465;BME280;68932;47.410;8.232;2024-01-11T04:35:17;97569.56;;;0.09;77.50
79465;BME280;68932;47.410;8.232;2024-01-11T04:37:45;97569.05;;;0.09;77.40
79465;BME280;68932;47.410;8.232;2024-01-11T04:40:14;97568.88;;;0.09;77.38
79465;BME280;68932;47.410;8.232;2024-01-11T04:42:42;97563.52;;;0.10;77.47
79465;BME280;68932;47.410;8.232;2024-01-11T04:45:11;97564.20;;;0.11;77.43
79465;BME280;68932;47.410;8.232;2024-01-11T04:47:39;97565.42;;;0.09;77.41
79465;BME280;68932;47.410;8.232;2024-01-11T04:50:09;97567.16;;;0.09;77.47
79465;BME280;68932;47.410;8.232;2024-01-11T04:52:37;97563.36;;;0.10;77.50
79465;BME280;68932;47.410;8.232;2024-01-11T04:55:07;97561.60;;;0.11;77.42
79465;BME280;68932;47.410;8.232;2024-01-11T04:57:35;97567.46;;;0.12;77.29
79465;BME280;68932;47.410;8.232;2024-01-11T05:00:05;97568.31;;;0.12;77.37
79465;BME280;68932;47.410;8.232;2024-01-11T05:02:33;97563.83;;;0.13;77.25
79465;BME280;68932;47.410;8.232;2024-01-11T05:05:02;97562.63;;;0.12;77.32
79465;BME280;68932;47.410;8.232;2024-01-11T05:07:30;97562.10;;;0.13;77.26
79465;BME280;68932;47.410;8.232;2024-01-11T05:09:58;97561.60;;;0.12;77.14
79465;BME280;68932;47.410;8.232;2024-01-11T05:12:26;97559.88;;;0.12;77.23
79465;BME280;68932;47.410;8.232;2024-01-11T05:14:55;97558.84;;;0.12;77.30
79465;BME280;68932;47.410;8.232;2024-01-11T05:17:23;97556.77;;;0.12;77.22
79465;BME280;68932;47.410;8.232;2024-01-11T05:19:51;97557.84;;;0.10;77.17
79465;BME280;68932;47.410;8.232;2024-01-11T05:22:20;97555.24;;;0.10;77.13
79465;BME280;68932;47.410;8.232;2024-01-11T05:24:48;97556.13;;;0.09;77.12
79465;BME280;68932;47.410;8.232;2024-01-11T05:27:17;97553.56;;;0.08;77.18
79465;BME280;68932;47.410;8.232;2024-01-11T05:29:45;97548.75;;;0.07;77.12
79465;BME280;68932;47.410;8.232;2024-01-11T05:32:13;97552.02;;;0.07;77.22
79465;BME280;68932;47.410;8.232;2024-01-11T05:34:41;97554.45;;;0.06;77.17
79465;BME280;68932;47.410;8.232;2024-01-11T05:37:10;97554.63;;;0.05;77.19
79465;BME280;68932;47.410;8.232;2024-01-11T05:39:38;97558.41;;;0.06;77.19
79465;BME280;68932;47.410;8.232;2024-01-11T05:42:07;97559.41;;;0.08;77.22
79465;BME280;68932;47.410;8.232;2024-01-11T05:44:35;97557.84;;;0.10;77.30
79465;BME280;68932;47.410;8.232;2024-01-11T05:47:04;97554.38;;;0.11;77.19
79465;BME280;68932;47.410;8.232;2024-01-11T05:49:32;97556.98;;;0.10;77.30
79465;BME280;68932;47.410;8.232;2024-01-11T05:52:01;97560.77;;;0.10;77.17
79465;BME280;68932;47.410;8.232;2024-01-11T05:54:29;97557.14;;;0.10;77.24
79465;BME280;68932;47.410;8.232;2024-01-11T05:56:58;97557.83;;;0.10;77.22
79465;BME280;68932;47.410;8.232;2024-01-11T05:59:26;97556.47;;;0.09;77.06
79465;BME280;68932;47.410;8.232;2024-01-11T06:01:54;97558.87;;;0.10;77.10
79465;BME280;68932;47.410;8.232;2024-01-11T06:04:23;97559.39;;;0.10;77.17
79465;BME280;68932;47.410;8.232;2024-01-11T06:06:51;97559.71;;;0.12;77.07
79465;BME280;68932;47.410;8.232;2024-01-11T06:09:19;97562.45;;;0.13;77.08
79465;BME280;68932;47.410;8.232;2024-01-11T06:11:47;97561.91;;;0.13;76.96
79465;BME280;68932;47.410;8.232;2024-01-11T06:14:16;97562.79;;;0.13;76.83
79465;BME280;68932;47.410;8.232;2024-01-11T06:16:44;97560.56;;;0.13;76.74
79465;BME280;68932;47.410;8.232;2024-01-11T06:19:12;97562.61;;;0.13;76.72
79465;BME280;68932;47.410;8.232;2024-01-11T06:21:41;97567.14;;;0.11;76.59
79465;BME280;68932;47.410;8.232;2024-01-11T06:24:09;97564.93;;;0.09;76.53
79465;BME280;68932;47.410;8.232;2024-01-11T06:26:37;97566.48;;;0.08;76.74
79465;BME280;68932;47.410;8.232;2024-01-11T06:29:06;97571.48;;;0.08;76.74
79465;BME280;68932;47.410;8.232;2024-01-11T06:31:34;97574.40;;;0.10;76.75
79465;BME280;68932;47.410;8.232;2024-01-11T06:34:02;97570.75;;;0.11;76.80
79465;BME280;68932;47.410;8.232;2024-01-11T06:36:31;97572.80;;;0.11;76.75
79465;BME280;68932;47.410;8.232;2024-01-11T06:38:59;97575.90;;;0.12;76.67
79465;BME280;68932;47.410;8.232;2024-01-11T06:41:27;97575.21;;;0.12;76.67
79465;BME280;68932;47.410;8.232;2024-01-11T06:43:56;97576.77;;;0.11;76.69
79465;BME280;68932;47.410;8.232;2024-01-11T06:46:24;97578.34;;;0.11;76.64
79465;BME280;68932;47.410;8.232;2024-01-11T06:48:52;97582.46;;;0.12;76.60
79465;BME280;68932;47.410;8.232;2024-01-11T06:51:23;97584.17;;;0.12;76.64
79465;BME280;68932;47.410;8.232;2024-01-11T06:53:51;97585.94;;;0.10;76.60
79465;BME280;68932;47.410;8.232;2024-01-11T06:56:20;97592.30;;;0.10;76.62
79465;BME280;68932;47.410;8.232;2024-01-11T06:58:49;97592.31;;;0.09;76.65
79465;BME280;68932;47.410;8.232;2024-01-11T07:01:18;97594.21;;;0.09;76.77
79465;BME280;68932;47.410;8.232;2024-01-11T07:03:46;97597.51;;;0.09;76.77
79465;BME280;68932;47.410;8.232;2024-01-11T07:06:15;97599.39;;;0.09;76.86
79465;BME280;68932;47.410;8.232;2024-01-11T07:08:43;97602.98;;;0.10;76.83
79465;BME280;68932;47.410;8.232;2024-01-11T07:11:11;97604.90;;;0.10;76.82
79465;BME280;68932;47.410;8.232;2024-01-11T07:13:40;97604.52;;;0.12;76.78
79465;BME280;68932;47.410;8.232;2024-01-11T07:16:08;97609.17;;;0.12;76.76
79465;BME280;68932;47.410;8.232;2024-01-11T07:18:37;97611.05;;;0.13;76.72
79465;BME280;68932;47.410;8.232;2024-01-11T07:21:05;97615.71;;;0.13;76.80
79465;BME280;68932;47.410;8.232;2024-01-11T07:23:33;97620.20;;;0.12;76.65
79465;BME280;68932;47.410;8.232;2024-01-11T07:26:01;97619.37;;;0.10;76.61
79465;BME280;68932;47.410;8.232;2024-01-11T07:28:30;97617.13;;;0.10;76.65
79465;BME280;68932;47.410;8.232;2024-01-11T07:30:58;97623.52;;;0.08;76.77
79465;BME280;68932;47.410;8.232;2024-01-11T07:33:26;97624.59;;;0.07;76.67
79465;BME280;68932;47.410;8.232;2024-01-11T07:35:55;97627.70;;;0.06;76.60
79465;BME280;68932;47.410;8.232;2024-01-11T07:38:23;97628.39;;;0.06;76.73
79465;BME280;68932;47.410;8.232;2024-01-11T07:40:51;97632.52;;;0.06;76.71
79465;BME280;68932;47.410;8.232;2024-01-11T07:43:19;97635.80;;;0.06;76.73
79465;BME280;68932;47.410;8.232;2024-01-11T07:45:48;97635.79;;;0.06;76.70
79465;BME280;68932;47.410;8.232;2024-01-11T07:48:16;97640.27;;;0.07;76.83
79465;BME280;68932;47.410;8.232;2024-01-11T07:50:44;97647.16;;;0.07;76.74
79465;BME280;68932;47.410;8.232;2024-01-11T07:53:13;97651.48;;;0.06;76.70
79465;BME280;68932;47.410;8.232;2024-01-11T07:55:41;97657.36;;;0.05;76.61
79465;BME280;68932;47.410;8.232;2024-01-11T07:58:09;97659.80;;;0.03;76.64
79465;BME280;68932;47.410;8.232;2024-01-11T08:00:37;97658.42;;;0.03;76.58
79465;BME280;68932;47.410;8.232;2024-01-11T08:03:06;97658.95;;;0.01;76.67
79465;BME280;68932;47.410;8.232;2024-01-11T08:05:34;97659.81;;;0.01;76.77
79465;BME280;68932;47.410;8.232;2024-01-11T08:08:03;97663.09;;;0.01;76.77
79465;BME280;68932;47.410;8.232;2024-01-11T08:10:32;97665.30;;;0.04;76.92
79465;BME280;68932;47.410;8.232;2024-01-11T08:13:00;97672.83;;;0.07;76.89
79465;BME280;68932;47.410;8.232;2024-01-11T08:15:28;97675.55;;;0.10;76.88
79465;BME280;68932;47.410;8.232;2024-01-11T08:17:57;97679.48;;;0.13;76.85
79465;BME280;68932;47.410;8.232;2024-01-11T08:20:25;97684.29;;;0.15;76.65
79465;BME280;68932;47.410;8.232;2024-01-11T08:22:53;97686.19;;;0.15;76.52
79465;BME280;68932;47.410;8.232;2024-01-11T08:25:22;97687.58;;;0.13;76.56
79465;BME280;68932;47.410;8.232;2024-01-11T08:27:50;97685.19;;;0.12;76.54
79465;BME280;68932;47.410;8.232;2024-01-11T08:30:19;97680.21;;;0.10;76.58
79465;BME280;68932;47.410;8.232;2024-01-11T08:32:47;97681.27;;;0.08;76.53
79465;BME280;68932;47.410;8.232;2024-01-11T08:35:15;97684.36;;;0.10;76.65
79465;BME280;68932;47.410;8.232;2024-01-11T08:37:44;97685.01;;;0.12;76.67
79465;BME280;68932;47.410;8.232;2024-01-11T08:40:13;97680.13;;;0.16;76.72
79465;BME280;68932;47.410;8.232;2024-01-11T08:42:41;97685.09;;;0.19;76.74
79465;BME280;68932;47.410;8.232;2024-01-11T08:45:11;97680.91;;;0.22;76.58
79465;BME280;68932;47.410;8.232;2024-01-11T08:47:39;97683.85;;;0.22;76.41
79465;BME280;68932;47.410;8.232;2024-01-11T08:50:08;97682.95;;;0.25;76.46
79465;BME280;68932;47.410;8.232;2024-01-11T08:52:40;97684.33;;;0.24;76.43
79465;BME280;68932;47.410;8.232;2024-01-11T08:55:09;97681.23;;;0.23;76.43
79465;BME280;68932;47.410;8.232;2024-01-11T08:57:38;97678.48;;;0.24;76.40
79465;BME280;68932;47.410;8.232;2024-01-11T09:00:08;97679.15;;;0.25;76.33
79465;BME280;68932;47.410;8.232;2024-01-11T09:02:36;97682.92;;;0.27;76.34
79465;BME280;68932;47.410;8.232;2024-01-11T09:05:06;97686.52;;;0.28;76.24
79465;BME280;68932;47.410;8.232;2024-01-11T09:07:34;97685.95;;;0.31;76.32
79465;BME280;68932;47.410;8.232;2024-01-11T09:10:03;97685.79;;;0.32;76.14
79465;BME280;68932;47.410;8.232;2024-01-11T09:12:31;97696.80;;;0.34;76.09
79465;BME280;68932;47.410;8.232;2024-01-11T09:15:00;97699.00;;;0.37;76.05
79465;BME280;68932;47.410;8.232;2024-01-11T09:17:28;97701.59;;;0.35;75.76
79465;BME280;68932;47.410;8.232;2024-01-11T09:19:56;97695.23;;;0.35;75.56
79465;BME280;68932;47.410;8.232;2024-01-11T09:22:25;97697.98;;;0.36;75.59
79465;BME280;68932;47.410;8.232;2024-01-11T09:24:53;97699.34;;;0.37;75.58
79465;BME280;68932;47.410;8.232;2024-01-11T09:27:21;97703.30;;;0.38;75.53
79465;BME280;68932;47.410;8.232;2024-01-11T09:29:50;97699.30;;;0.40;75.49
79465;BME280;68932;47.410;8.232;2024-01-11T09:32:18;97704.30;;;0.41;75.53
79465;BME280;68932;47.410;8.232;2024-01-11T09:34:46;97707.05;;;0.40;75.62
79465;BME280;68932;47.410;8.232;2024-01-11T09:37:15;97711.34;;;0.42;75.53
79465;BME280;68932;47.410;8.232;2024-01-11T09:39:43;97712.38;;;0.42;75.28
79465;BME280;68932;47.410;8.232;2024-01-11T09:42:12;97714.83;;;0.40;75.19
79465;BME280;68932;47.410;8.232;2024-01-11T09:44:40;97716.40;;;0.37;75.24
79465;BME280;68932;47.410;8.232;2024-01-11T09:47:10;97718.31;;;0.37;75.36
79465;BME280;68932;47.410;8.232;2024-01-11T09:49:39;97719.86;;;0.37;75.36
79465;BME280;68932;47.410;8.232;2024-01-11T09:52:10;97723.84;;;0.36;75.34
79465;BME280;68932;47.410;8.232;2024-01-11T09:54:39;97720.56;;;0.37;75.42
79465;BME280;68932;47.410;8.232;2024-01-11T09:57:08;97713.31;;;0.37;75.32
79465;BME280;68932;47.410;8.232;2024-01-11T09:59:37;97707.79;;;0.37;75.10
79465;BME280;68932;47.410;8.232;2024-01-11T10:02:07;97706.06;;;0.37;75.08
79465;BME280;68932;47.410;8.232;2024-01-11T10:04:38;97712.94;;;0.39;75.05
79465;BME280;68932;47.410;8.232;2024-01-11T10:07:07;97712.41;;;0.39;75.14
79465;BME280;68932;47.410;8.232;2024-01-11T10:09:36;97706.54;;;0.41;75.02
79465;BME280;68932;47.410;8.232;2024-01-11T10:12:05;97708.27;;;0.41;74.85
79465;BME280;68932;47.410;8.232;2024-01-11T10:14:34;97708.23;;;0.43;74.80
79465;BME280;68932;47.410;8.232;2024-01-11T10:17:02;97708.39;;;0.44;74.86
79465;BME280;68932;47.410;8.232;2024-01-11T10:19:31;97708.03;;;0.45;74.91
79465;BME280;68932;47.410;8.232;2024-01-11T10:21:59;97707.98;;;0.48;74.83
79465;BME280;68932;47.410;8.232;2024-01-11T10:24:28;97705.88;;;0.51;74.77
79465;BME280;68932;47.410;8.232;2024-01-11T10:26:58;97707.05;;;0.53;74.46
79465;BME280;68932;47.410;8.232;2024-01-11T10:29:31;97712.73;;;0.53;74.44
79465;BME280;68932;47.410;8.232;2024-01-11T10:32:00;97717.23;;;0.52;74.26
79465;BME280;68932;47.410;8.232;2024-01-11T10:34:28;97713.95;;;0.52;74.23
79465;BME280;68932;47.410;8.232;2024-01-11T10:36:57;97713.95;;;0.52;74.26
79465;BME280;68932;47.410;8.232;2024-01-11T10:39:26;97711.38;;;0.52;74.13
79465;BME280;68932;47.410;8.232;2024-01-11T10:42:00;97708.65;;;0.49;74.05
79465;BME280;68932;47.410;8.232;2024-01-11T10:44:34;97708.84;;;0.49;74.21
79465;BME280;68932;47.410;8.232;2024-01-11T10:47:04;97708.33;;;0.49;74.21
79465;BME280;68932;47.410;8.232;2024-01-11T10:49:35;97705.39;;;0.49;74.27
79465;BME280;68932;47.410;8.232;2024-01-11T10:52:08;97706.95;;;0.49;74.19
79465;BME280;68932;47.410;8.232;2024-01-11T10:54:41;97710.57;;;0.49;74.15
79465;BME280;68932;47.410;8.232;2024-01-11T10:57:10;97714.87;;;0.49;74.17
79465;BME280;68932;47.410;8.232;2024-01-11T10:59:41;97714.34;;;0.50;74.10
79465;BME280;68932;47.410;8.232;2024-01-11T11:02:09;97718.49;;;0.49;74.19
79465;BME280;68932;47.410;8.232;2024-01-11T11:04:38;97720.56;;;0.49;74.09
79465;BME280;68932;47.410;8.232;2024-01-11T11:07:07;97723.00;;;0.47;74.16
79465;BME280;68932;47.410;8.232;2024-01-11T11:09:38;97722.70;;;0.45;74.14
79465;BME280;68932;47.410;8.232;2024-01-11T11:12:08;97719.11;;;0.42;74.02
79465;BME280;68932;47.410;8.232;2024-01-11T11:14:39;97712.56;;;0.41;74.23
79465;BME280;68932;47.410;8.232;2024-01-11T11:17:08;97710.48;;;0.43;74.42
79465;BME280;68932;47.410;8.232;2024-01-11T11:19:36;97706.64;;;0.46;74.38
79465;BME280;68932;47.410;8.232;2024-01-11T11:22:06;97702.46;;;0.48;74.20
79465;BME280;68932;47.410;8.232;2024-01-11T11:24:36;97703.55;;;0.44;73.68
79465;BME280;68932;47.410;8.232;2024-01-11T11:27:06;97707.05;;;0.40;73.80
79465;BME280;68932;47.410;8.232;2024-01-11T11:29:35;97703.45;;;0.39;74.01
79465;BME280;68932;47.410;8.232;2024-01-11T11:32:05;97697.75;;;0.39;73.95
79465;BME280;68932;47.410;8.232;2024-01-11T11:34:43;97697.91;;;0.40;74.02
79465;BME280;68932;47.410;8.232;2024-01-11T11:37:12;97693.23;;;0.42;74.08
79465;BME280;68932;47.410;8.232;2024-01-11T11:39:43;97694.08;;;0.44;74.04
79465;BME280;68932;47.410;8.232;2024-01-11T11:42:13;97689.36;;;0.47;74.04
79465;BME280;68932;47.410;8.232;2024-01-11T11:44:50;97678.15;;;0.48;73.86
79465;BME280;68932;47.410;8.232;2024-01-11T11:47:23;97670.55;;;0.48;73.81
79465;BME280;68932;47.410;8.232;2024-01-11T11:50:04;97673.12;;;0.50;73.84
79465;BME280;68932;47.410;8.232;2024-01-11T11:52:34;97670.30;;;0.54;73.95
79465;BME280;68932;47.410;8.232;2024-01-11T11:55:04;97667.36;;;0.55;73.60
79465;BME280;68932;47.410;8.232;2024-01-11T11:57:33;97663.73;;;0.54;73.64
79465;BME280;68932;47.410;8.232;2024-01-11T12:00:01;97665.09;;;0.57;73.71
79465;BME280;68932;47.410;8.232;2024-01-11T12:02:31;97666.77;;;0.59;73.55
79465;BME280;68932;47.410;8.232;2024-01-11T12:04:59;97659.98;;;0.63;73.64
79465;BME280;68932;47.410;8.232;2024-01-11T12:07:28;97660.11;;;0.66;73.63
79465;BME280;68932;47.410;8.232;2024-01-11T12:09:57;97659.41;;;0.67;73.44
79465;BME280;68932;47.410;8.232;2024-01-11T12:12:25;97655.41;;;0.68;73.40
79465;BME280;68932;47.410;8.232;2024-01-11T12:14:54;97653.52;;;0.68;73.23
79465;BME280;68932;47.410;8.232;2024-01-11T12:17:22;97650.12;;;0.65;73.22
79465;BME280;68932;47.410;8.232;2024-01-11T12:19:52;97652.04;;;0.63;73.10
79465;BME280;68932;47.410;8.232;2024-01-11T12:22:21;97647.77;;;0.61;73.15
79465;BME280;68932;47.410;8.232;2024-01-11T12:24:49;97649.31;;;0.61;73.38
79465;BME280;68932;47.410;8.232;2024-01-11T12:27:17;97646.40;;;0.61;73.27
79465;BME280;68932;47.410;8.232;2024-01-11T12:29:46;97643.77;;;0.63;73.29
79465;BME280;68932;47.410;8.232;2024-01-11T12:32:15;97642.86;;;0.66;73.15
79465;BME280;68932;47.410;8.232;2024-01-11T12:34:45;97646.80;;;0.67;73.14
79465;BME280;68932;47.410;8.232;2024-01-11T12:37:14;97648.17;;;0.68;73.08
79465;BME280;68932;47.410;8.232;2024-01-11T12:39:43;97651.29;;;0.67;73.03
79465;BME280;68932;47.410;8.232;2024-01-11T12:42:12;97657.90;;;0.64;73.05
79465;BME280;68932;47.410;8.232;2024-01-11T12:44:41;97655.38;;;0.59;72.97
79465;BME280;68932;47.410;8.232;2024-01-11T12:47:10;97656.80;;;0.56;73.01
79465;BME280;68932;47.410;8.232;2024-01-11T12:49:38;97651.84;;;0.55;73.10
79465;BME280;68932;47.410;8.232;2024-01-11T12:52:17;97652.69;;;0.55;73.13
79465;BME280;68932;47.410;8.232;2024-01-11T12:54:45;97652.03;;;0.53;72.87
79465;BME280;68932;47.410;8.232;2024-01-11T12:57:18;97649.44;;;0.54;73.07
79465;BME280;68932;47.410;8.232;2024-01-11T12:59:47;97651.48;;;0.54;73.17
79465;BME280;68932;47.410;8.232;2024-01-11T13:02:16;97651.88;;;0.52;73.01
79465;BME280;68932;47.410;8.232;2024-01-11T13:04:45;97648.94;;;0.52;73.07
79465;BME280;68932;47.410;8.232;2024-01-11T13:07:14;97651.86;;;0.53;73.02
79465;BME280;68932;47.410;8.232;2024-01-11T13:09:42;97649.94;;;0.55;73.13
79465;BME280;68932;47.410;8.232;2024-01-11T13:12:11;97648.49;;;0.58;73.08
79465;BME280;68932;47.410;8.232;2024-01-11T13:14:39;97655.30;;;0.65;73.12
79465;BME280;68932;47.410;8.232;2024-01-11T13:17:07;97655.89;;;0.71;73.13